Time,TemperatureF,DewpointF,PressureIn,WindDirection,WindDirectionDegrees,WindSpeedMPH,WindSpeedGustMPH,Humidity,HourlyPrecipIn,Conditions,Clouds,dailyrainin,SoftwareType,DateUTC
2013-01-31 00:00:00,38.5,35.3,29.23,West,265,14.0,24.0,88,0.00,-RA,-RA,0.27,WeatherDisplay:10.37,2013-01-31 05:00:00,
2013-01-31 00:01:00,38.5,35.5,29.25,WSW,254,9.3,17.3,89,0.02,-RA,,0.00,WeatherDisplay:10.37,2013-01-31 05:01:00,
2013-01-31 00:02:00,38.5,35.5,29.24,WSW,246,12.7,19.6,89,0.02,-RA,,0.00,WeatherDisplay:10.37,2013-01-31 05:02:00,
2013-01-31 00:07:00,38.3,35.3,29.24,SSW,206,7.6,17.3,89,0.03,-RA,,0.01,WeatherDisplay:10.37,2013-01-31 05:07:00,
2013-01-31 00:12:00,38.1,35.1,29.23,WSW,252,13.2,19.6,89,0.03,-RA,,0.01,WeatherDisplay:10.37,2013-01-31 05:12:00,
2013-01-31 00:17:00,38.0,35.0,29.23,West,270,11.4,20.7,89,0.03,-RA,,0.01,WeatherDisplay:10.37,2013-01-31 05:17:00,
2013-01-31 00:22:00,37.9,35.2,29.24,WNW,300,17.6,24.2,90,0.02,-RA,,0.01,WeatherDisplay:10.37,2013-01-31 05:22:00,
2013-01-31 00:27:00,37.8,35.1,29.24,West,267,9.7,19.6,90,0.02,-RA,,0.01,WeatherDisplay:10.37,2013-01-31 05:27:00,
2013-01-31 00:32:00,37.7,35.3,29.24,WSW,246,11.2,16.1,91,0.03,-RA,,0.02,WeatherDisplay:10.37,2013-01-31 05:32:00,
2013-01-31 00:37:00,37.4,35.0,29.25,West,269,10.0,23.0,91,0.03,-RA,,0.02,WeatherDisplay:10.37,2013-01-31 05:37:00,
2013-01-31 00:42:00,37.2,35.1,29.25,West,278,11.5,21.9,92,0.03,-RA,,0.02,WeatherDisplay:10.37,2013-01-31 05:42:00,
2013-01-31 00:47:00,36.9,34.8,29.26,West,275,12.2,19.6,92,0.02,-RA,,0.02,WeatherDisplay:10.37,2013-01-31 05:47:00,
2013-01-31 00:52:00,36.7,34.6,29.26,West,269,11.2,18.4,92,0.02,-RA,,0.02,WeatherDisplay:10.37,2013-01-31 05:52:00,
2013-01-31 00:57:00,36.3,33.9,29.25,West,274,14.8,23.0,91,0.02,-RA,,0.02,WeatherDisplay:10.37,2013-01-31 05:57:00,
2013-01-31 01:02:00,35.9,33.5,29.25,West,261,17.2,25.3,91,0.02,-RA,,0.02,WeatherDisplay:10.37,2013-01-31 06:02:00,
2013-01-31 01:07:00,35.7,33.6,29.25,WNW,295,14.8,18.4,92,0.01,-RA,,0.02,WeatherDisplay:10.37,2013-01-31 06:07:00,
2013-01-31 01:12:00,35.5,33.4,29.25,West,265,12.6,24.2,92,0.02,-RA,,0.03,WeatherDisplay:10.37,2013-01-31 06:12:00,
2013-01-31 01:17:00,35.5,33.1,29.26,West,273,10.8,17.3,91,0.02,-RA,,0.03,WeatherDisplay:10.37,2013-01-31 06:17:00,
2013-01-31 01:22:00,35.4,33.0,29.26,WSW,254,10.4,15.0,91,0.02,-RA,,0.03,WeatherDisplay:10.37,2013-01-31 06:22:00,
2013-01-31 01:27:00,35.4,32.8,29.27,WSW,256,11.7,19.6,90,0.02,-RA,,0.03,WeatherDisplay:10.37,2013-01-31 06:27:00,
2013-01-31 01:32:00,35.4,32.8,29.27,SW,236,10.1,18.4,90,0.01,-RA,,0.03,WeatherDisplay:10.37,2013-01-31 06:32:00,
2013-01-31 01:37:00,35.5,32.9,29.27,WSW,252,12.5,20.7,90,0.01,-RA,,0.03,WeatherDisplay:10.37,2013-01-31 06:37:00,
2013-01-31 01:42:00,35.5,32.9,29.27,WSW,239,7.6,10.4,90,0.01,-RA,,0.03,WeatherDisplay:10.37,2013-01-31 06:42:00,
2013-01-31 01:47:00,35.5,32.9,29.27,North,360,8.8,17.3,90,0.01,-RA,,0.03,WeatherDisplay:10.37,2013-01-31 06:47:00,
2013-01-31 01:52:00,35.5,32.9,29.27,WSW,239,7.0,12.7,90,0.01,-RA,,0.03,WeatherDisplay:10.37,2013-01-31 06:52:00,
2013-01-31 01:57:00,35.6,32.7,29.28,West,269,6.2,11.0,89,0.01,-RA,,0.03,WeatherDisplay:10.37,2013-01-31 06:57:00,
2013-01-31 02:02:00,35.5,32.6,29.29,NNW,332,10.6,22.0,89,0.01,-RA,,0.03,WeatherDisplay:10.37,2013-01-31 07:02:00,
2013-01-31 02:07:00,34.6,32.5,29.30,West,271,7.0,15.0,92,0.01,-RA,,0.03,WeatherDisplay:10.37,2013-01-31 07:07:00,
2013-01-31 02:12:00,34.0,32.2,29.30,West,268,10.6,15.0,93,0.00,-RA,,0.03,WeatherDisplay:10.37,2013-01-31 07:12:00,
2013-01-31 02:17:00,33.9,32.1,29.31,West,271,11.9,18.4,93,0.00,-RA,,0.03,WeatherDisplay:10.37,2013-01-31 07:17:00,
2013-01-31 02:22:00,34.0,31.4,29.31,WNW,283,13.5,29.9,90,0.00,-RA,,0.03,WeatherDisplay:10.37,2013-01-31 07:22:00,
2013-01-31 02:27:00,34.2,31.0,29.31,West,263,17.0,24.2,88,0.00,-RA,,0.03,WeatherDisplay:10.37,2013-01-31 07:27:00,
2013-01-31 02:32:00,34.3,30.8,29.31,SW,227,10.0,19.6,87,0.00,-RA,,0.03,WeatherDisplay:10.37,2013-01-31 07:32:00,
2013-01-31 02:37:00,34.3,30.8,29.32,WNW,286,12.3,22.0,87,0.00,-RA,,0.03,WeatherDisplay:10.37,2013-01-31 07:37:00,
2013-01-31 02:42:00,34.2,30.2,29.33,West,261,13.1,19.6,85,0.00,-RA,,0.03,WeatherDisplay:10.37,2013-01-31 07:42:00,
2013-01-31 02:47:00,33.9,30.2,29.34,WNW,292,13.8,25.3,86,0.00,-RA,,0.03,WeatherDisplay:10.37,2013-01-31 07:47:00,
2013-01-31 02:52:00,33.8,29.2,29.34,West,263,18.1,26.5,83,0.00,-RA,,0.03,WeatherDisplay:10.37,2013-01-31 07:52:00,
2013-01-31 02:57:00,33.8,29.2,29.34,West,275,10.5,23.0,83,0.00,-RA,,0.03,WeatherDisplay:10.37,2013-01-31 07:57:00,
2013-01-31 03:02:00,33.8,28.6,29.34,WSW,248,13.3,21.9,81,0.00,-SN,,0.03,WeatherDisplay:10.37,2013-01-31 08:02:00,
2013-01-31 03:07:00,33.8,28.3,29.35,West,269,11.6,19.6,80,0.00,-SN,,0.03,WeatherDisplay:10.37,2013-01-31 08:07:00,
2013-01-31 03:12:00,33.8,28.3,29.35,WNW,286,9.3,13.8,80,0.00,-SN,,0.03,WeatherDisplay:10.37,2013-01-31 08:12:00,
2013-01-31 03:17:00,33.7,27.9,29.35,WNW,295,11.2,20.7,79,0.00,-SN,,0.03,WeatherDisplay:10.37,2013-01-31 08:17:00,
2013-01-31 03:22:00,33.7,28.5,29.34,WNW,287,6.1,13.8,81,0.00,-SN,,0.03,WeatherDisplay:10.37,2013-01-31 08:22:00,
2013-01-31 03:27:00,33.6,28.1,29.35,West,261,8.4,13.8,80,0.00,-SN,,0.03,WeatherDisplay:10.37,2013-01-31 08:27:00,
2013-01-31 03:32:00,33.6,28.1,29.35,WSW,239,10.6,19.6,80,0.00,-SN,,0.03,WeatherDisplay:10.37,2013-01-31 08:32:00,
2013-01-31 03:37:00,33.4,27.9,29.35,West,275,13.7,20.7,80,0.00,-SN,,0.03,WeatherDisplay:10.37,2013-01-31 08:37:00,
2013-01-31 03:42:00,33.2,28.3,29.35,SW,225,13.0,26.5,82,0.00,-SN,,0.03,WeatherDisplay:10.37,2013-01-31 08:42:00,
2013-01-31 03:47:00,33.0,27.5,29.36,WSW,256,13.8,18.4,80,0.00,-SN,,0.03,WeatherDisplay:10.37,2013-01-31 08:47:00,
2013-01-31 03:52:00,32.9,27.1,29.36,WNW,294,13.4,18.4,79,0.00,-SN,,0.03,WeatherDisplay:10.37,2013-01-31 08:52:00,
2013-01-31 03:57:00,32.9,26.8,29.37,West,272,15.6,19.6,78,0.00,-SN,,0.03,WeatherDisplay:10.37,2013-01-31 08:57:00,
2013-01-31 04:02:00,32.9,25.8,29.37,WNW,295,16.1,26.5,75,0.00,-SN,,0.03,WeatherDisplay:10.37,2013-01-31 09:02:00,
2013-01-31 04:07:00,32.9,25.8,29.37,NW,313,9.4,17.3,75,0.00,-SN,,0.03,WeatherDisplay:10.37,2013-01-31 09:07:00,
2013-01-31 04:12:00,32.8,25.4,29.38,West,277,12.7,13.8,74,0.00,-SN,,0.03,WeatherDisplay:10.37,2013-01-31 09:12:00,
2013-01-31 04:17:00,32.7,24.7,29.38,WNW,283,14.1,19.6,72,0.00,-SN,,0.03,WeatherDisplay:10.37,2013-01-31 09:17:00,
2013-01-31 04:22:00,32.7,24.3,29.38,West,273,11.9,21.9,71,0.00,-SN,,0.03,WeatherDisplay:10.37,2013-01-31 09:22:00,
2013-01-31 04:27:00,32.7,25.0,29.39,NW,321,14.9,21.9,73,0.00,-SN,,0.03,WeatherDisplay:10.37,2013-01-31 09:27:00,
2013-01-31 04:32:00,32.3,24.6,29.39,WNW,286,13.9,24.2,73,0.00,-SN,,0.03,WeatherDisplay:10.37,2013-01-31 09:32:00,
2013-01-31 04:37:00,31.9,24.9,29.39,West,269,17.5,24.2,75,0.00,-SN,,0.03,WeatherDisplay:10.37,2013-01-31 09:37:00,
2013-01-31 04:42:00,31.7,25.0,29.39,West,269,11.3,19.6,76,0.00,-SN,,0.03,WeatherDisplay:10.37,2013-01-31 09:42:00,
2013-01-31 04:47:00,31.7,24.7,29.40,WNW,286,10.5,17.3,75,0.00,-SN,,0.03,WeatherDisplay:10.37,2013-01-31 09:47:00,
2013-01-31 04:52:00,31.6,24.9,29.40,WSW,252,16.1,23.0,76,0.00,-SN,,0.03,WeatherDisplay:10.37,2013-01-31 09:52:00,
2013-01-31 04:57:00,31.6,25.2,29.40,WSW,251,12.9,21.9,77,0.00,-SN,,0.03,WeatherDisplay:10.37,2013-01-31 09:57:00,
2013-01-31 05:02:00,31.6,24.9,29.41,West,279,7.5,18.4,76,0.00,-SN,,0.03,WeatherDisplay:10.37,2013-01-31 10:02:00,
2013-01-31 05:07:00,31.7,25.3,29.41,NW,304,6.2,13.8,77,0.00,-SN,,0.03,WeatherDisplay:10.37,2013-01-31 10:07:00,
2013-01-31 05:12:00,31.7,25.0,29.41,West,269,12.6,20.7,76,0.00,-SN,,0.03,WeatherDisplay:10.37,2013-01-31 10:12:00,
2013-01-31 05:17:00,31.5,25.4,29.42,WNW,300,11.7,19.6,78,0.00,-SN,,0.03,WeatherDisplay:10.37,2013-01-31 10:17:00,
2013-01-31 05:22:00,31.1,26.5,29.42,WNW,294,18.7,24.2,83,0.00,-SN,,0.03,WeatherDisplay:10.37,2013-01-31 10:22:00,
2013-01-31 05:27:00,30.0,27.2,29.42,WNW,294,8.6,26.5,89,0.00,-SN,,0.03,WeatherDisplay:10.37,2013-01-31 10:27:00,
2013-01-31 05:32:00,29.7,27.1,29.42,West,277,11.3,19.6,90,0.00,-SN,,0.03,WeatherDisplay:10.37,2013-01-31 10:32:00,
2013-01-31 05:37:00,29.7,26.6,29.42,WSW,243,11.7,23.0,88,0.00,-SN,,0.03,WeatherDisplay:10.37,2013-01-31 10:37:00,
2013-01-31 05:42:00,30.1,26.1,29.42,WNW,283,9.6,15.0,85,0.00,-SN,,0.03,WeatherDisplay:10.37,2013-01-31 10:42:00,
2013-01-31 05:47:00,30.3,25.5,29.43,West,273,13.8,17.3,82,0.00,-SN,,0.03,WeatherDisplay:10.37,2013-01-31 10:47:00,
2013-01-31 05:52:00,30.6,25.5,29.43,WNW,288,6.5,9.2,81,0.00,-SN,,0.03,WeatherDisplay:10.37,2013-01-31 10:52:00,
2013-01-31 05:57:00,30.7,25.3,29.44,WNW,286,10.3,16.1,80,0.00,-SN,,0.03,WeatherDisplay:10.37,2013-01-31 10:57:00,
2013-01-31 06:02:00,30.5,25.7,29.44,WSW,257,15.2,25.0,82,0.00,-SN,,0.03,WeatherDisplay:10.37,2013-01-31 11:02:00,
2013-01-31 06:07:00,30.1,25.8,29.45,West,281,9.4,19.6,84,0.00,-SN,,0.03,WeatherDisplay:10.37,2013-01-31 11:07:00,
2013-01-31 06:12:00,29.8,26.4,29.45,WSW,246,11.0,19.6,87,0.00,-SN,,0.03,WeatherDisplay:10.37,2013-01-31 11:12:00,
2013-01-31 06:17:00,29.5,26.1,29.45,SW,232,14.0,20.0,87,0.00,-SN,,0.03,WeatherDisplay:10.37,2013-01-31 11:17:00,
2013-01-31 06:22:00,29.4,25.4,29.46,NW,306,17.3,26.5,85,0.00,-SN,,0.03,WeatherDisplay:10.37,2013-01-31 11:22:00,
2013-01-31 06:27:00,29.6,25.1,29.46,West,264,13.6,20.7,83,0.00,-SN,,0.03,WeatherDisplay:10.37,2013-01-31 11:27:00,
2013-01-31 06:32:00,29.6,24.8,29.46,West,259,14.7,23.0,82,0.00,-SN,,0.03,WeatherDisplay:10.37,2013-01-31 11:32:00,
2013-01-31 06:37:00,29.5,24.7,29.48,WSW,258,14.2,21.9,82,0.00,-SN,,0.03,WeatherDisplay:10.37,2013-01-31 11:37:00,
2013-01-31 06:42:00,29.1,25.4,29.48,West,274,13.3,20.7,86,0.00,-SN,,0.03,WeatherDisplay:10.37,2013-01-31 11:42:00,
2013-01-31 06:47:00,28.7,25.0,29.49,WNW,298,12.4,19.6,86,0.00,-SN,,0.03,WeatherDisplay:10.37,2013-01-31 11:47:00,
2013-01-31 06:52:00,28.8,24.3,29.49,West,261,10.6,18.4,83,0.00,-SN,,0.03,WeatherDisplay:10.37,2013-01-31 11:52:00,
2013-01-31 06:57:00,29.0,23.9,29.50,West,279,9.3,17.3,81,0.00,-SN,,0.03,WeatherDisplay:10.37,2013-01-31 11:57:00,
2013-01-31 07:02:00,29.1,24.0,29.50,WNW,293,6.2,11.5,81,0.00,-SN,,0.03,WeatherDisplay:10.37,2013-01-31 12:02:00,
2013-01-31 07:07:00,29.1,23.7,29.51,NW,315,15.2,23.0,80,0.00,-SN,,0.03,WeatherDisplay:10.37,2013-01-31 12:07:00,
2013-01-31 07:12:00,29.0,23.3,29.51,West,271,11.9,17.3,79,0.00,-SN,,0.03,WeatherDisplay:10.37,2013-01-31 12:12:00,
2013-01-31 07:17:00,28.8,23.4,29.52,WSW,251,9.1,24.2,80,0.00,-SN,,0.03,WeatherDisplay:10.37,2013-01-31 12:17:00,
2013-01-31 07:22:00,28.5,23.1,29.52,WSW,242,11.0,21.0,80,0.00,-SN,,0.03,WeatherDisplay:10.37,2013-01-31 12:22:00,
2013-01-31 07:27:00,28.3,22.6,29.52,NW,312,11.4,19.6,79,0.00,-SN,,0.03,WeatherDisplay:10.37,2013-01-31 12:27:00,
2013-01-31 07:32:00,28.3,22.0,29.52,West,269,11.0,18.4,77,0.00,-SN,,0.03,WeatherDisplay:10.37,2013-01-31 12:32:00,
2013-01-31 07:37:00,28.3,21.4,29.52,West,271,9.8,16.1,75,0.00,-SN,,0.03,WeatherDisplay:10.37,2013-01-31 12:37:00,
2013-01-31 07:42:00,28.3,21.7,29.53,WNW,288,12.3,19.6,76,0.00,-SN,,0.03,WeatherDisplay:10.37,2013-01-31 12:42:00,
2013-01-31 07:47:00,28.1,22.4,29.53,West,272,13.2,21.9,79,0.00,-SN,,0.03,WeatherDisplay:10.37,2013-01-31 12:47:00,
2013-01-31 07:52:00,27.4,23.5,29.54,WNW,289,14.8,24.2,85,0.00,-SN,,0.03,WeatherDisplay:10.37,2013-01-31 12:52:00,
2013-01-31 07:57:00,26.8,22.3,29.54,West,273,10.3,21.9,83,0.00,-SN,,0.03,WeatherDisplay:10.37,2013-01-31 12:57:00,
2013-01-31 08:02:00,26.7,21.9,29.55,WSW,238,11.1,19.6,82,0.00,-SN,,0.03,WeatherDisplay:10.37,2013-01-31 13:02:00,
2013-01-31 08:07:00,26.8,21.8,29.55,West,267,10.8,19.6,81,0.00,-SN,,0.03,WeatherDisplay:10.37,2013-01-31 13:07:00,
2013-01-31 08:12:00,26.9,21.6,29.55,West,264,10.6,16.1,80,0.00,-SN,,0.03,WeatherDisplay:10.37,2013-01-31 13:12:00,
2013-01-31 08:17:00,27.0,21.1,29.56,West,275,14.5,19.6,78,0.00,-SN,,0.03,WeatherDisplay:10.37,2013-01-31 13:17:00,
2013-01-31 08:22:00,27.1,21.2,29.56,West,272,9.9,18.4,78,0.00,-SN,,0.03,WeatherDisplay:10.37,2013-01-31 13:22:00,
2013-01-31 08:27:00,27.2,21.2,29.56,West,271,9.5,12.7,78,0.00,-SN,,0.03,WeatherDisplay:10.37,2013-01-31 13:27:00,
2013-01-31 08:32:00,27.2,20.9,29.57,WNW,288,13.4,19.6,77,0.00,-SN,,0.03,WeatherDisplay:10.37,2013-01-31 13:32:00,
2013-01-31 08:37:00,27.3,20.1,29.58,West,279,14.7,25.3,74,0.00,-SN,,0.03,WeatherDisplay:10.37,2013-01-31 13:37:00,
2013-01-31 08:42:00,27.1,19.9,29.58,West,263,10.7,18.4,74,0.00,-SN,,0.03,WeatherDisplay:10.37,2013-01-31 13:42:00,
2013-01-31 08:47:00,27.0,19.8,29.58,West,259,12.2,19.6,74,0.00,-SN,,0.03,WeatherDisplay:10.37,2013-01-31 13:47:00,
2013-01-31 08:52:00,26.9,19.7,29.59,NW,319,11.7,18.4,74,0.00,-SN,,0.03,WeatherDisplay:10.37,2013-01-31 13:52:00,
2013-01-31 08:57:00,26.8,20.2,29.59,WNW,285,12.4,19.6,76,0.00,-SN,,0.03,WeatherDisplay:10.37,2013-01-31 13:57:00,
2013-01-31 09:02:00,26.7,20.1,29.59,WNW,297,14.6,26.5,76,0.00,-SN,,0.03,WeatherDisplay:10.37,2013-01-31 14:02:00,
2013-01-31 09:07:00,26.5,20.3,29.59,West,281,15.6,19.6,77,0.00,-SN,,0.03,WeatherDisplay:10.37,2013-01-31 14:07:00,
2013-01-31 09:12:00,26.3,20.4,29.60,West,267,14.2,23.0,78,0.00,-SN,,0.03,WeatherDisplay:10.37,2013-01-31 14:12:00,
2013-01-31 09:17:00,26.2,20.3,29.60,West,267,13.8,19.6,78,0.00,-SN,,0.03,WeatherDisplay:10.37,2013-01-31 14:17:00,
2013-01-31 09:22:00,26.1,20.5,29.60,WSW,253,9.4,15.0,79,0.00,-SN,,0.03,WeatherDisplay:10.37,2013-01-31 14:22:00,
2013-01-31 09:27:00,26.1,20.8,29.61,West,278,7.5,17.3,80,0.00,-SN,,0.03,WeatherDisplay:10.37,2013-01-31 14:27:00,
2013-01-31 09:32:00,26.1,20.5,29.61,West,280,8.7,12.7,79,0.00,-SN,,0.03,WeatherDisplay:10.37,2013-01-31 14:32:00,
2013-01-31 09:37:00,26.0,20.1,29.61,WNW,288,11.7,19.6,78,0.00,-SN,,0.03,WeatherDisplay:10.37,2013-01-31 14:37:00,
2013-01-31 09:42:00,25.9,20.0,29.61,WNW,293,11.0,19.6,78,0.00,-SN,,0.03,WeatherDisplay:10.37,2013-01-31 14:42:00,
2013-01-31 09:47:00,25.7,19.8,29.62,WSW,241,15.7,21.9,78,0.00,-SN,,0.03,WeatherDisplay:10.37,2013-01-31 14:47:00,
2013-01-31 09:52:00,25.6,20.6,29.62,West,262,7.4,11.5,81,0.00,-SN,,0.03,WeatherDisplay:10.37,2013-01-31 14:52:00,
2013-01-31 09:57:00,25.3,21.1,29.62,WNW,289,6.7,18.4,84,0.00,-SN,,0.03,WeatherDisplay:10.37,2013-01-31 14:57:00,
2013-01-31 10:02:00,25.2,21.6,29.63,West,273,10.1,12.7,86,0.00,CLR,,0.03,WeatherDisplay:10.37,2013-01-31 15:02:00,
2013-01-31 10:07:00,25.0,20.8,29.63,West,275,10.9,21.9,84,0.00,CLR,,0.03,WeatherDisplay:10.37,2013-01-31 15:07:00,
2013-01-31 10:12:00,25.0,20.8,29.63,West,281,7.5,13.0,84,0.00,CLR,,0.03,WeatherDisplay:10.37,2013-01-31 15:12:00,
2013-01-31 10:17:00,25.0,20.6,29.63,West,260,7.3,12.7,83,0.00,CLR,,0.03,WeatherDisplay:10.37,2013-01-31 15:17:00,
2013-01-31 10:22:00,25.1,20.7,29.64,West,261,18.8,23.0,83,0.00,CLR,,0.03,WeatherDisplay:10.37,2013-01-31 15:22:00,
2013-01-31 10:27:00,25.1,18.9,29.64,West,261,13.1,19.6,77,0.00,CLR,,0.03,WeatherDisplay:10.37,2013-01-31 15:27:00,
2013-01-31 10:32:00,25.3,18.5,29.65,WNW,285,12.4,25.3,75,0.00,CLR,,0.03,WeatherDisplay:10.37,2013-01-31 15:32:00,
2013-01-31 10:37:00,25.6,18.5,29.65,WSW,242,12.2,20.7,74,0.00,CLR,,0.03,WeatherDisplay:10.37,2013-01-31 15:37:00,
2013-01-31 10:42:00,25.8,18.3,29.65,West,281,7.7,10.4,73,0.00,CLR,,0.03,WeatherDisplay:10.37,2013-01-31 15:42:00,
2013-01-31 10:47:00,26.0,17.6,29.65,WSW,252,12.8,20.7,70,0.00,CLR,,0.03,WeatherDisplay:10.37,2013-01-31 15:47:00,
2013-01-31 10:52:00,26.1,16.6,29.65,West,280,14.1,19.6,67,0.00,CLR,,0.03,WeatherDisplay:10.37,2013-01-31 15:52:00,
2013-01-31 10:57:00,26.1,17.0,29.65,WNW,286,6.2,12.7,68,0.00,CLR,,0.03,WeatherDisplay:10.37,2013-01-31 15:57:00,
2013-01-31 11:02:00,26.2,17.1,29.65,WSW,239,6.9,13.8,68,0.00,OVC,,0.03,WeatherDisplay:10.37,2013-01-31 16:02:00,
2013-01-31 11:07:00,26.3,16.5,29.65,West,276,10.5,13.0,66,0.00,OVC,,0.03,WeatherDisplay:10.37,2013-01-31 16:07:00,
2013-01-31 11:12:00,26.3,16.1,29.65,WNW,298,6.1,8.1,65,0.00,OVC,,0.03,WeatherDisplay:10.37,2013-01-31 16:12:00,
2013-01-31 11:17:00,26.2,16.0,29.65,WNW,296,10.6,12.7,65,0.00,OVC,,0.03,WeatherDisplay:10.37,2013-01-31 16:17:00,
2013-01-31 11:22:00,26.2,16.0,29.66,West,262,8.4,18.0,65,0.00,OVC,,0.03,WeatherDisplay:10.37,2013-01-31 16:22:00,
2013-01-31 11:27:00,26.2,16.0,29.66,West,262,9.1,12.0,65,0.00,OVC,,0.03,WeatherDisplay:10.37,2013-01-31 16:27:00,
2013-01-31 11:32:00,26.3,15.8,29.66,West,266,7.0,17.3,64,0.00,OVC,,0.03,WeatherDisplay:10.37,2013-01-31 16:32:00,
2013-01-31 11:37:00,26.3,16.1,29.66,West,276,11.2,21.0,65,0.00,OVC,,0.03,WeatherDisplay:10.37,2013-01-31 16:37:00,
2013-01-31 11:42:00,26.1,15.9,29.66,WNW,294,14.0,23.0,65,0.00,OVC,,0.03,WeatherDisplay:10.37,2013-01-31 16:42:00,
2013-01-31 11:47:00,25.9,16.4,29.66,WSW,257,7.8,18.0,67,0.00,OVC,,0.03,WeatherDisplay:10.37,2013-01-31 16:47:00,
2013-01-31 11:52:00,25.7,16.6,29.66,West,280,7.4,11.5,68,0.00,OVC,,0.03,WeatherDisplay:10.37,2013-01-31 16:52:00,
2013-01-31 11:57:00,25.7,16.9,29.66,NW,306,11.4,19.6,69,0.00,OVC,,0.03,WeatherDisplay:10.37,2013-01-31 16:57:00,
2013-01-31 12:02:00,25.5,17.4,29.66,WNW,292,9.5,18.4,71,0.00,-SN,,0.03,WeatherDisplay:10.37,2013-01-31 17:02:00,
2013-01-31 12:07:00,25.4,17.6,29.67,WNW,300,6.0,8.1,72,0.00,-SN,,0.03,WeatherDisplay:10.37,2013-01-31 17:07:00,
2013-01-31 12:12:00,25.2,18.4,29.67,WNW,300,9.3,24.2,75,0.00,-SN,,0.03,WeatherDisplay:10.37,2013-01-31 17:12:00,
2013-01-31 12:17:00,24.7,18.8,29.68,West,278,14.1,24.2,78,0.00,-SN,,0.03,WeatherDisplay:10.37,2013-01-31 17:17:00,
2013-01-31 12:22:00,24.6,17.5,29.67,West,271,9.9,17.3,74,0.00,-SN,,0.03,WeatherDisplay:10.37,2013-01-31 17:22:00,
2013-01-31 12:27:00,24.9,17.5,29.68,West,265,9.9,21.0,73,0.00,-SN,,0.03,WeatherDisplay:10.37,2013-01-31 17:27:00,
2013-01-31 12:32:00,25.2,16.8,29.68,WNW,287,8.3,15.0,70,0.00,-SN,,0.03,WeatherDisplay:10.37,2013-01-31 17:32:00,
2013-01-31 12:37:00,25.3,16.2,29.67,WNW,285,13.6,19.6,68,0.00,-SN,,0.03,WeatherDisplay:10.37,2013-01-31 17:37:00,
2013-01-31 12:42:00,25.4,15.6,29.68,NW,322,8.1,11.5,66,0.00,-SN,,0.03,WeatherDisplay:10.37,2013-01-31 17:42:00,
2013-01-31 12:47:00,25.4,16.3,29.68,West,278,12.1,23.0,68,0.00,-SN,,0.03,WeatherDisplay:10.37,2013-01-31 17:47:00,
2013-01-31 12:52:00,25.0,15.6,29.68,NW,315,10.7,15.0,67,0.00,-SN,,0.03,WeatherDisplay:10.37,2013-01-31 17:52:00,
2013-01-31 12:57:00,24.7,16.0,29.68,WNW,286,7.3,12.7,69,0.00,-SN,,0.03,WeatherDisplay:10.37,2013-01-31 17:57:00,
2013-01-31 13:02:00,24.7,17.0,29.69,WNW,283,8.8,19.6,72,0.00,-SN,,0.03,WeatherDisplay:10.37,2013-01-31 18:02:00,
2013-01-31 13:07:00,24.5,16.4,29.68,WSW,246,9.1,17.3,71,0.00,-SN,,0.03,WeatherDisplay:10.37,2013-01-31 18:07:00,
2013-01-31 13:12:00,24.3,16.2,29.69,WSW,254,15.9,26.5,71,0.00,-SN,,0.03,WeatherDisplay:10.37,2013-01-31 18:12:00,
2013-01-31 13:17:00,24.0,16.0,29.69,SSW,198,13.1,22.0,71,0.00,-SN,,0.03,WeatherDisplay:10.37,2013-01-31 18:17:00,
2013-01-31 13:22:00,24.0,16.0,29.69,WSW,250,9.0,17.3,71,0.00,-SN,,0.03,WeatherDisplay:10.37,2013-01-31 18:22:00,
2013-01-31 13:27:00,24.0,15.6,29.69,West,266,9.6,19.6,70,0.00,-SN,,0.03,WeatherDisplay:10.37,2013-01-31 18:27:00,
2013-01-31 13:32:00,24.1,15.7,29.70,WSW,248,13.0,18.4,70,0.00,-SN,,0.03,WeatherDisplay:10.37,2013-01-31 18:32:00,
2013-01-31 13:37:00,24.1,15.1,29.69,West,262,12.3,20.0,68,0.00,-SN,,0.03,WeatherDisplay:10.37,2013-01-31 18:37:00,
2013-01-31 13:42:00,24.1,15.1,29.70,WSW,240,11.8,20.0,68,0.00,-SN,,0.03,WeatherDisplay:10.37,2013-01-31 18:42:00,
2013-01-31 13:47:00,24.2,15.2,29.70,West,276,11.3,18.4,68,0.00,-SN,,0.03,WeatherDisplay:10.37,2013-01-31 18:47:00,
2013-01-31 13:52:00,24.3,14.9,29.70,WSW,252,6.1,10.4,67,0.00,-SN,,0.03,WeatherDisplay:10.37,2013-01-31 18:52:00,
2013-01-31 13:57:00,24.5,15.8,29.70,West,272,10.9,17.3,69,0.00,-SN,,0.03,WeatherDisplay:10.37,2013-01-31 18:57:00,
2013-01-31 14:02:00,24.6,15.5,29.70,West,260,7.9,15.0,68,0.00,-SN,,0.03,WeatherDisplay:10.37,2013-01-31 19:02:00,
2013-01-31 14:07:00,24.6,15.2,29.71,WSW,247,8.6,19.6,67,0.00,-SN,,0.03,WeatherDisplay:10.37,2013-01-31 19:07:00,
2013-01-31 14:12:00,24.5,15.4,29.71,West,263,6.2,12.7,68,0.00,-SN,,0.03,WeatherDisplay:10.37,2013-01-31 19:12:00,
2013-01-31 14:17:00,24.4,16.0,29.71,West,269,11.5,19.0,70,0.00,-SN,,0.03,WeatherDisplay:10.37,2013-01-31 19:17:00,
2013-01-31 14:22:00,24.1,16.7,29.71,West,275,9.8,19.6,73,0.00,-SN,,0.03,WeatherDisplay:10.37,2013-01-31 19:22:00,
2013-01-31 14:27:00,23.9,16.5,29.72,WNW,290,11.9,19.6,73,0.00,-SN,,0.03,WeatherDisplay:10.37,2013-01-31 19:27:00,
2013-01-31 14:32:00,23.8,16.4,29.72,WNW,300,15.0,31.1,73,0.00,-SN,,0.03,WeatherDisplay:10.37,2013-01-31 19:32:00,
2013-01-31 14:37:00,23.6,15.9,29.72,West,269,11.8,19.6,72,0.00,-SN,,0.03,WeatherDisplay:10.37,2013-01-31 19:37:00,
2013-01-31 14:42:00,23.5,15.8,29.72,West,272,14.3,23.0,72,0.00,-SN,,0.03,WeatherDisplay:10.37,2013-01-31 19:42:00,
2013-01-31 14:47:00,23.5,16.1,29.72,WNW,288,11.6,18.4,73,0.00,-SN,,0.03,WeatherDisplay:10.37,2013-01-31 19:47:00,
2013-01-31 14:52:00,23.6,16.8,29.73,WSW,250,10.3,18.4,75,0.00,-SN,,0.03,WeatherDisplay:10.37,2013-01-31 19:52:00,
2013-01-31 14:57:00,23.6,17.4,29.73,WNW,286,10.2,18.0,77,0.00,-SN,,0.03,WeatherDisplay:10.37,2013-01-31 19:57:00,
2013-01-31 15:02:00,23.7,17.2,29.73,West,273,12.3,18.4,76,0.00,-SN,,0.03,WeatherDisplay:10.37,2013-01-31 20:02:00,
2013-01-31 15:07:00,23.8,17.0,29.74,WSW,246,7.1,17.0,75,0.00,-SN,,0.03,WeatherDisplay:10.37,2013-01-31 20:07:00,
2013-01-31 15:12:00,23.9,18.0,29.74,West,271,11.3,24.2,78,0.00,-SN,,0.03,WeatherDisplay:10.37,2013-01-31 20:12:00,
2013-01-31 15:17:00,23.9,15.9,29.74,NW,304,9.2,13.8,71,0.00,-SN,,0.03,WeatherDisplay:10.37,2013-01-31 20:17:00,
2013-01-31 15:22:00,24.2,16.1,29.74,NW,307,9.0,17.0,71,0.00,-SN,,0.03,WeatherDisplay:10.37,2013-01-31 20:22:00,
2013-01-31 15:27:00,24.3,15.6,29.75,West,281,10.1,18.0,69,0.00,-SN,,0.03,WeatherDisplay:10.37,2013-01-31 20:27:00,
2013-01-31 15:32:00,24.3,15.3,29.75,West,267,14.0,26.5,68,0.00,-SN,,0.03,WeatherDisplay:10.37,2013-01-31 20:32:00,
2013-01-31 15:37:00,24.3,15.3,29.75,WNW,302,11.2,18.0,68,0.00,-SN,,0.03,WeatherDisplay:10.37,2013-01-31 20:37:00,
2013-01-31 15:42:00,24.3,15.6,29.74,West,279,8.2,17.3,69,0.00,-SN,,0.03,WeatherDisplay:10.37,2013-01-31 20:42:00,
2013-01-31 15:47:00,24.4,15.7,29.74,WSW,258,9.1,19.6,69,0.00,-SN,,0.03,WeatherDisplay:10.37,2013-01-31 20:47:00,
2013-01-31 15:52:00,24.5,15.4,29.74,WSW,258,10.8,20.7,68,0.00,-SN,,0.03,WeatherDisplay:10.37,2013-01-31 20:52:00,
2013-01-31 15:57:00,24.6,16.2,29.75,West,267,12.9,23.0,70,0.00,-SN,,0.03,WeatherDisplay:10.37,2013-01-31 20:57:00,
2013-01-31 16:02:00,24.5,16.4,29.75,WNW,283,13.6,27.6,71,0.00,-SN,,0.03,WeatherDisplay:10.37,2013-01-31 21:02:00,
2013-01-31 16:07:00,24.3,16.6,29.75,West,275,13.8,20.7,72,0.00,-SN,,0.03,WeatherDisplay:10.37,2013-01-31 21:07:00,
2013-01-31 16:12:00,24.1,17.0,29.76,West,275,9.7,19.6,74,0.00,-SN,,0.03,WeatherDisplay:10.37,2013-01-31 21:12:00,
2013-01-31 16:17:00,24.0,17.2,29.75,West,260,10.0,12.7,75,0.00,-SN,,0.03,WeatherDisplay:10.37,2013-01-31 21:17:00,
2013-01-31 16:22:00,24.1,17.6,29.76,NNW,328,5.6,9.0,76,0.00,-SN,,0.03,WeatherDisplay:10.37,2013-01-31 21:22:00,
2013-01-31 16:27:00,24.1,17.6,29.76,NW,304,5.0,13.0,76,0.00,-SN,,0.03,WeatherDisplay:10.37,2013-01-31 21:27:00,
2013-01-31 16:32:00,24.1,17.9,29.75,West,269,6.8,12.7,77,0.00,-SN,,0.03,WeatherDisplay:10.37,2013-01-31 21:32:00,
2013-01-31 16:37:00,24.0,18.1,29.76,WNW,283,7.6,13.8,78,0.00,-SN,,0.03,WeatherDisplay:10.37,2013-01-31 21:37:00,
2013-01-31 16:42:00,23.9,18.3,29.76,WNW,290,8.5,15.0,79,0.00,-SN,,0.03,WeatherDisplay:10.37,2013-01-31 21:42:00,
2013-01-31 16:47:00,24.0,18.1,29.76,WNW,295,6.5,11.5,78,0.00,-SN,,0.03,WeatherDisplay:10.37,2013-01-31 21:47:00,
2013-01-31 16:52:00,24.1,17.9,29.76,WNW,292,8.0,15.0,77,0.00,-SN,,0.03,WeatherDisplay:10.37,2013-01-31 21:52:00,
2013-01-31 16:57:00,24.1,18.2,29.76,West,275,5.1,11.5,78,0.00,-SN,,0.03,WeatherDisplay:10.37,2013-01-31 21:57:00,
2013-01-31 17:02:00,24.2,18.9,29.76,West,275,5.1,7.0,80,0.00,OVC,,0.03,WeatherDisplay:10.37,2013-01-31 22:02:00,
2013-01-31 17:07:00,24.2,18.6,29.76,WSW,257,6.4,11.5,79,0.00,OVC,,0.03,WeatherDisplay:10.37,2013-01-31 22:07:00,
2013-01-31 17:12:00,24.2,18.9,29.77,West,273,5.4,12.7,80,0.00,OVC,,0.03,WeatherDisplay:10.37,2013-01-31 22:12:00,
2013-01-31 17:17:00,24.1,18.8,29.77,WSW,256,11.1,15.0,80,0.00,OVC,,0.03,WeatherDisplay:10.37,2013-01-31 22:17:00,
2013-01-31 17:22:00,24.0,19.0,29.77,West,271,8.3,11.5,81,0.00,OVC,,0.03,WeatherDisplay:10.37,2013-01-31 22:22:00,
2013-01-31 17:27:00,23.9,19.2,29.77,WSW,252,3.1,7.0,82,0.00,OVC,,0.03,WeatherDisplay:10.37,2013-01-31 22:27:00,
2013-01-31 17:32:00,23.9,19.5,29.77,SSW,211,4.8,8.1,83,0.00,OVC,,0.03,WeatherDisplay:10.37,2013-01-31 22:32:00,
2013-01-31 17:37:00,23.8,19.9,29.78,WNW,300,3.7,5.8,85,0.00,OVC,,0.03,WeatherDisplay:10.37,2013-01-31 22:37:00,
2013-01-31 17:42:00,23.6,20.6,29.77,West,263,5.5,6.9,88,0.00,OVC,,0.03,WeatherDisplay:10.37,2013-01-31 22:42:00,
2013-01-31 17:47:00,23.2,20.7,29.77,WSW,241,8.8,13.8,90,0.00,OVC,,0.03,WeatherDisplay:10.37,2013-01-31 22:47:00,
2013-01-31 17:52:00,22.9,20.7,29.77,WNW,283,3.5,5.8,91,0.00,OVC,,0.03,WeatherDisplay:10.37,2013-01-31 22:52:00,
2013-01-31 17:57:00,22.7,20.5,29.78,WSW,257,4.9,8.1,91,0.00,OVC,,0.03,WeatherDisplay:10.37,2013-01-31 22:57:00,
2013-01-31 18:02:00,22.6,20.4,29.78,WSW,254,8.5,11.5,91,0.00,-SN,,0.03,WeatherDisplay:10.37,2013-01-31 23:02:00,
2013-01-31 18:07:00,22.7,20.5,29.78,WSW,255,3.1,4.6,91,0.00,-SN,,0.03,WeatherDisplay:10.37,2013-01-31 23:07:00,
2013-01-31 18:12:00,22.9,20.4,29.77,West,262,7.0,13.0,90,0.00,-SN,,0.03,WeatherDisplay:10.37,2013-01-31 23:12:00,
2013-01-31 18:17:00,23.0,20.2,29.78,WSW,244,9.2,12.7,89,0.00,-SN,,0.03,WeatherDisplay:10.37,2013-01-31 23:17:00,
2013-01-31 18:22:00,23.0,22.3,29.78,WSW,252,10.8,19.6,97,0.00,-SN,,0.03,WeatherDisplay:10.37,2013-01-31 23:22:00,
2013-01-31 18:27:00,22.9,20.1,29.78,West,267,13.4,15.0,89,0.00,-SN,,0.03,WeatherDisplay:10.37,2013-01-31 23:27:00,
2013-01-31 18:32:00,22.9,19.9,29.78,WSW,257,6.7,10.4,88,0.00,-SN,,0.03,WeatherDisplay:10.37,2013-01-31 23:32:00,
2013-01-31 18:37:00,22.9,19.9,29.79,WNW,289,5.9,11.5,88,0.00,-SN,,0.03,WeatherDisplay:10.37,2013-01-31 23:37:00,
2013-01-31 18:42:00,23.0,20.0,29.78,WSW,242,7.2,11.5,88,0.00,-SN,,0.03,WeatherDisplay:10.37,2013-01-31 23:42:00,
2013-01-31 18:47:00,23.1,19.8,29.78,West,261,5.8,10.4,87,0.00,-SN,,0.03,WeatherDisplay:10.37,2013-01-31 23:47:00,
2013-01-31 18:52:00,23.2,19.9,29.78,West,271,7.5,9.2,87,0.00,-SN,,0.03,WeatherDisplay:10.37,2013-01-31 23:52:00,
2013-01-31 18:57:00,23.2,19.4,29.79,WSW,254,6.1,17.0,85,0.00,-SN,,0.03,WeatherDisplay:10.37,2013-01-31 23:57:00,
2013-01-31 19:02:00,23.2,19.1,29.79,WNW,288,6.6,9.2,84,0.00,OVC,,0.03,WeatherDisplay:10.37,2013-02-01 00:02:00,
2013-01-31 19:07:00,23.2,19.1,29.79,West,265,3.8,9.2,84,0.00,OVC,,0.03,WeatherDisplay:10.37,2013-02-01 00:07:00,
2013-01-31 19:12:00,23.1,18.7,29.79,WSW,246,6.4,12.7,83,0.00,OVC,,0.03,WeatherDisplay:10.37,2013-02-01 00:12:00,
2013-01-31 19:17:00,23.3,19.2,29.80,West,265,5.4,6.9,84,0.00,OVC,,0.03,WeatherDisplay:10.37,2013-02-01 00:17:00,
2013-01-31 19:22:00,23.3,18.6,29.80,WSW,252,8.6,12.7,82,0.00,OVC,,0.03,WeatherDisplay:10.37,2013-02-01 00:22:00,
2013-01-31 19:27:00,23.4,18.4,29.80,West,277,6.9,18.4,81,0.00,OVC,,0.03,WeatherDisplay:10.37,2013-02-01 00:27:00,
2013-01-31 19:32:00,23.6,17.7,29.80,WNW,294,5.5,7.0,78,0.00,OVC,,0.03,WeatherDisplay:10.37,2013-02-01 00:32:00,
2013-01-31 19:37:00,23.7,17.5,29.80,WSW,248,7.7,11.5,77,0.00,OVC,,0.03,WeatherDisplay:10.37,2013-02-01 00:37:00,
2013-01-31 19:42:00,23.8,17.3,29.81,WNW,291,12.8,18.4,76,0.00,OVC,,0.03,WeatherDisplay:10.37,2013-02-01 00:42:00,
2013-01-31 19:47:00,24.0,16.6,29.81,West,280,11.4,18.4,73,0.00,OVC,,0.03,WeatherDisplay:10.37,2013-02-01 00:47:00,
2013-01-31 19:52:00,24.0,16.6,29.81,West,281,10.8,20.0,73,0.00,OVC,,0.03,WeatherDisplay:10.37,2013-02-01 00:52:00,
2013-01-31 19:57:00,24.0,16.3,29.81,WNW,289,9.7,18.4,72,0.00,OVC,,0.03,WeatherDisplay:10.37,2013-02-01 00:57:00,
2013-01-31 20:02:00,24.0,16.3,29.81,West,273,11.0,19.6,72,0.00,-SN,,0.03,WeatherDisplay:10.37,2013-02-01 01:02:00,
2013-01-31 20:07:00,23.9,16.2,29.81,West,260,8.8,20.7,72,0.00,-SN,,0.03,WeatherDisplay:10.37,2013-02-01 01:07:00,
2013-01-31 20:12:00,23.9,16.2,29.81,WNW,302,8.7,16.1,72,0.00,-SN,,0.03,WeatherDisplay:10.37,2013-02-01 01:12:00,
2013-01-31 20:17:00,23.9,15.9,29.81,West,269,4.7,8.1,71,0.00,-SN,,0.03,WeatherDisplay:10.37,2013-02-01 01:17:00,
2013-01-31 20:22:00,23.8,15.8,29.82,WNW,282,10.6,15.0,71,0.00,-SN,,0.03,WeatherDisplay:10.37,2013-02-01 01:22:00,
2013-01-31 20:27:00,23.8,15.8,29.82,WNW,291,7.0,11.5,71,0.00,-SN,,0.03,WeatherDisplay:10.37,2013-02-01 01:27:00,
2013-01-31 20:32:00,23.7,16.3,29.82,WSW,252,10.3,12.7,73,0.00,-SN,,0.03,WeatherDisplay:10.37,2013-02-01 01:32:00,
2013-01-31 20:37:00,23.5,16.7,29.82,WNW,291,7.9,14.0,75,0.00,-SN,,0.03,WeatherDisplay:10.37,2013-02-01 01:37:00,
2013-01-31 20:42:00,23.3,17.5,29.82,WNW,298,8.6,13.8,78,0.00,-SN,,0.03,WeatherDisplay:10.37,2013-02-01 01:42:00,
2013-01-31 20:47:00,23.1,17.3,29.82,West,269,5.4,6.9,78,0.00,-SN,,0.03,WeatherDisplay:10.37,2013-02-01 01:47:00,
2013-01-31 20:52:00,23.1,17.3,29.83,WNW,295,4.3,6.0,78,0.00,-SN,,0.03,WeatherDisplay:10.37,2013-02-01 01:52:00,
2013-01-31 20:57:00,23.2,17.4,29.83,WNW,295,9.6,15.0,78,0.00,-SN,,0.03,WeatherDisplay:10.37,2013-02-01 01:57:00,
2013-01-31 21:02:00,23.2,16.8,29.83,West,274,8.3,15.0,76,0.00,BKN,,0.03,WeatherDisplay:10.37,2013-02-01 02:02:00,
2013-01-31 21:07:00,23.2,16.4,29.83,West,267,9.8,13.8,75,0.00,BKN,,0.03,WeatherDisplay:10.37,2013-02-01 02:07:00,
2013-01-31 21:12:00,23.2,16.1,29.83,West,259,9.5,13.8,74,0.00,BKN,,0.03,WeatherDisplay:10.37,2013-02-01 02:12:00,
2013-01-31 21:17:00,23.2,15.8,29.83,WSW,256,9.9,13.8,73,0.00,BKN,,0.03,WeatherDisplay:10.37,2013-02-01 02:17:00,
2013-01-31 21:22:00,23.2,16.1,29.83,West,263,11.2,17.3,74,0.00,BKN,,0.03,WeatherDisplay:10.37,2013-02-01 02:22:00,
2013-01-31 21:27:00,23.3,15.9,29.84,WNW,291,8.3,11.5,73,0.00,BKN,,0.03,WeatherDisplay:10.37,2013-02-01 02:27:00,
2013-01-31 21:32:00,23.2,15.2,29.84,WNW,291,12.2,16.1,71,0.00,BKN,,0.03,WeatherDisplay:10.37,2013-02-01 02:32:00,
2013-01-31 21:37:00,23.2,15.5,29.84,WNW,288,4.3,6.9,72,0.00,BKN,,0.03,WeatherDisplay:10.37,2013-02-01 02:37:00,
2013-01-31 21:42:00,23.2,15.8,29.85,NW,313,4.7,18.4,73,0.00,BKN,,0.03,WeatherDisplay:10.37,2013-02-01 02:42:00,
2013-01-31 21:47:00,23.0,18.0,29.85,NW,309,10.7,20.7,81,0.00,BKN,,0.03,WeatherDisplay:10.37,2013-02-01 02:47:00,
2013-01-31 21:52:00,22.0,18.2,29.85,WNW,284,11.6,19.0,85,0.00,BKN,,0.03,WeatherDisplay:10.37,2013-02-01 02:52:00,
2013-01-31 21:57:00,21.4,17.9,29.85,WNW,298,10.1,21.9,86,0.00,BKN,,0.03,WeatherDisplay:10.37,2013-02-01 02:57:00,
2013-01-31 22:02:00,21.4,16.8,29.85,WNW,285,10.3,17.3,82,0.00,-SN,,0.03,WeatherDisplay:10.37,2013-02-01 03:02:00,
2013-01-31 22:07:00,21.5,16.3,29.85,WSW,249,10.7,13.8,80,0.00,-SN,,0.03,WeatherDisplay:10.37,2013-02-01 03:07:00,
2013-01-31 22:12:00,21.6,15.8,29.85,WNW,288,5.0,13.8,78,0.00,-SN,,0.03,WeatherDisplay:10.37,2013-02-01 03:12:00,
2013-01-31 22:17:00,21.6,16.1,29.85,NW,319,6.7,12.7,79,0.00,-SN,,0.03,WeatherDisplay:10.37,2013-02-01 03:17:00,
2013-01-31 22:22:00,21.7,16.5,29.85,WNW,292,5.7,8.1,80,0.00,-SN,,0.03,WeatherDisplay:10.37,2013-02-01 03:22:00,
2013-01-31 22:27:00,21.6,16.1,29.85,WNW,296,5.4,11.5,79,0.00,-SN,,0.03,WeatherDisplay:10.37,2013-02-01 03:27:00,
2013-01-31 22:32:00,21.4,15.6,29.85,WNW,286,8.6,12.0,78,0.00,-SN,,0.03,WeatherDisplay:10.37,2013-02-01 03:32:00,
2013-01-31 22:37:00,21.2,15.4,29.85,WSW,255,3.9,6.9,78,0.00,-SN,,0.03,WeatherDisplay:10.37,2013-02-01 03:37:00,
2013-01-31 22:42:00,21.1,15.3,29.85,NW,308,7.4,11.5,78,0.00,-SN,,0.03,WeatherDisplay:10.37,2013-02-01 03:42:00,
2013-01-31 22:47:00,21.1,15.9,29.85,WSW,250,4.1,6.0,80,0.00,-SN,,0.03,WeatherDisplay:10.37,2013-02-01 03:47:00,
2013-01-31 22:52:00,21.0,15.8,29.85,WNW,286,3.4,11.5,80,0.00,-SN,,0.03,WeatherDisplay:10.37,2013-02-01 03:52:00,
2013-01-31 22:57:00,20.9,15.1,29.85,North,360,8.1,13.8,78,0.00,-SN,,0.03,WeatherDisplay:10.37,2013-02-01 03:57:00,
2013-01-31 23:02:00,20.8,14.4,29.86,North,360,6.5,11.5,76,0.00,-SN,,0.03,WeatherDisplay:10.37,2013-02-01 04:02:00,
2013-01-31 23:07:00,20.7,14.0,29.86,North,360,3.4,5.8,75,0.00,-SN,,0.03,WeatherDisplay:10.37,2013-02-01 04:07:00,
2013-01-31 23:12:00,20.6,13.9,29.86,North,360,6.6,11.0,75,0.00,-SN,,0.03,WeatherDisplay:10.37,2013-02-01 04:12:00,
2013-01-31 23:17:00,20.5,13.5,29.86,North,360,7.6,9.2,74,0.00,-SN,,0.03,WeatherDisplay:10.37,2013-02-01 04:17:00,
2013-01-31 23:22:00,20.4,13.1,29.86,North,360,4.9,13.8,73,0.00,-SN,,0.03,WeatherDisplay:10.37,2013-02-01 04:22:00,
2013-01-31 23:27:00,20.4,13.4,29.86,North,360,7.6,12.7,74,0.00,-SN,,0.03,WeatherDisplay:10.37,2013-02-01 04:27:00,
2013-01-31 23:32:00,20.3,13.3,29.86,North,360,7.6,11.5,74,0.00,-SN,,0.03,WeatherDisplay:10.37,2013-02-01 04:32:00,
2013-01-31 23:37:00,20.2,13.8,29.86,North,360,7.3,11.5,76,0.00,-SN,,0.03,WeatherDisplay:10.37,2013-02-01 04:37:00,
2013-01-31 23:42:00,20.0,13.6,29.86,North,360,6.6,10.4,76,0.00,-SN,,0.03,WeatherDisplay:10.37,2013-02-01 04:42:00,
2013-01-31 23:47:00,19.8,13.8,29.86,North,360,5.3,9.2,77,0.00,-SN,,0.03,WeatherDisplay:10.37,2013-02-01 04:47:00,
2013-01-31 23:52:00,19.6,13.6,29.86,North,360,5.1,9.2,77,0.00,-SN,,0.03,WeatherDisplay:10.37,2013-02-01 04:52:00,
2013-01-31 23:58:00,19.4,13.7,29.85,North,360,6.1,10.4,78,0.00,-SN,,0.03,WeatherDisplay:10.37,2013-02-01 04:58:00,